Time,TemperatureF,DewpointF,PressureIn,WindDirection,WindDirectionDegrees,WindSpeedMPH,WindSpeedGustMPH,Humidity,HourlyPrecipIn,Conditions,Clouds,dailyrainin,SolarRadiationWatts/m^2,SoftwareType,DateUTC
2013-05-18 00:21:00,35.0,35.0,-100.00,NNE,16,2.0,5.0,100,0.00,,,0.28,1.000000,,2013-05-18 08:21:00,
2013-05-18 00:32:00,35.0,35.0,-100.00,NNE,16,2.0,5.0,100,0.00,,,0.28,1.000000,,2013-05-18 08:32:00,
2013-05-18 00:42:00,35.0,35.0,-100.00,NNE,16,2.0,5.0,100,0.00,,,0.28,1.000000,,2013-05-18 08:42:00,
2013-05-18 00:52:00,35.0,35.0,-100.00,NNE,16,2.0,5.0,100,0.00,,,0.28,1.000000,,2013-05-18 08:52:00,
2013-05-18 01:22:00,35.0,35.0,-100.00,SSW,205,1.0,4.0,100,0.00,,,0.28,0.000000,,2013-05-18 09:22:00,
2013-05-18 01:32:00,35.0,35.0,-100.00,SSW,205,1.0,4.0,100,0.00,,,0.28,0.000000,,2013-05-18 09:32:00,
2013-05-18 01:43:00,35.0,35.0,-100.00,SSW,205,1.0,4.0,100,0.00,,,0.28,0.000000,,2013-05-18 09:43:00,
2013-05-18 01:53:00,35.0,35.0,-100.00,SSW,205,1.0,4.0,100,0.00,,,0.28,0.000000,,2013-05-18 09:53:00,
2013-05-18 02:22:00,34.0,32.0,-100.00,NW,306,1.0,5.0,93,0.00,,,0.28,0.000000,,2013-05-18 10:22:00,
2013-05-18 02:33:00,34.0,32.0,-100.00,NW,306,1.0,5.0,93,0.00,,,0.28,0.000000,,2013-05-18 10:33:00,
2013-05-18 02:42:00,34.0,32.0,-100.00,NW,306,1.0,5.0,93,0.00,,,0.28,0.000000,,2013-05-18 10:42:00,
2013-05-18 02:52:00,34.0,32.0,-100.00,NW,306,1.0,5.0,93,0.00,,,0.28,0.000000,,2013-05-18 10:52:00,
2013-05-18 03:22:00,34.0,32.0,-100.00,NNE,13,1.0,6.0,92,0.00,,,0.28,0.000000,,2013-05-18 11:22:00,
2013-05-18 03:33:00,34.0,32.0,-100.00,NNE,13,1.0,6.0,92,0.00,,,0.28,0.000000,,2013-05-18 11:33:00,
2013-05-18 03:42:00,34.0,32.0,-100.00,NNE,13,1.0,6.0,92,0.00,,,0.28,0.000000,,2013-05-18 11:42:00,
2013-05-18 03:52:00,34.0,32.0,-100.00,NNE,13,1.0,6.0,92,0.00,,,0.28,0.000000,,2013-05-18 11:52:00,
2013-05-18 04:23:00,33.0,30.0,-100.00,NW,315,2.0,7.0,87,0.00,,,0.28,0.000000,,2013-05-18 12:23:00,
2013-05-18 04:33:00,33.0,30.0,-100.00,NW,315,2.0,7.0,87,0.00,,,0.28,0.000000,,2013-05-18 12:33:00,
2013-05-18 04:41:00,33.0,30.0,-100.00,NW,315,2.0,7.0,87,0.00,,,0.28,0.000000,,2013-05-18 12:41:00,
2013-05-18 04:52:00,33.0,30.0,-100.00,NW,315,2.0,7.0,87,0.00,,,0.28,0.000000,,2013-05-18 12:52:00,
2013-05-18 05:21:00,33.0,29.0,-100.00,WNW,297,2.0,9.0,84,0.00,,,0.28,1.000000,,2013-05-18 13:21:00,
2013-05-18 05:33:00,33.0,29.0,-100.00,WNW,297,2.0,9.0,84,0.00,,,0.28,1.000000,,2013-05-18 13:33:00,
2013-05-18 05:43:00,33.0,29.0,-100.00,WNW,297,2.0,9.0,84,0.00,,,0.28,1.000000,,2013-05-18 13:43:00,
2013-05-18 05:52:00,33.0,29.0,-100.00,WNW,297,2.0,9.0,84,0.00,,,0.28,1.000000,,2013-05-18 13:52:00,
2013-05-18 06:22:00,32.0,28.0,-100.00,West,274,3.0,7.0,85,0.00,,,0.28,5.000000,,2013-05-18 14:22:00,
2013-05-18 06:32:00,32.0,28.0,-100.00,West,274,3.0,7.0,85,0.00,,,0.28,5.000000,,2013-05-18 14:32:00,
2013-05-18 06:42:00,32.0,28.0,-100.00,West,274,3.0,7.0,85,0.00,,,0.28,5.000000,,2013-05-18 14:42:00,
2013-05-18 06:54:00,32.0,28.0,-100.00,West,274,3.0,7.0,85,0.00,,,0.28,5.000000,,2013-05-18 14:54:00,
2013-05-18 07:23:00,33.0,26.0,-100.00,NNW,334,1.0,6.0,75,0.00,,,0.28,29.000000,,2013-05-18 15:23:00,
2013-05-18 07:33:00,33.0,26.0,-100.00,NNW,334,1.0,6.0,75,0.00,,,0.28,29.000000,,2013-05-18 15:33:00,
2013-05-18 07:43:00,33.0,26.0,-100.00,NNW,334,1.0,6.0,75,0.00,,,0.28,29.000000,,2013-05-18 15:43:00,
2013-05-18 07:53:00,33.0,26.0,-100.00,NNW,334,1.0,6.0,75,0.00,,,0.28,29.000000,,2013-05-18 15:53:00,
2013-05-18 08:22:00,33.0,25.0,-100.00,West,274,4.0,10.0,71,0.00,,,0.28,68.000000,,2013-05-18 16:22:00,
2013-05-18 08:32:00,33.0,25.0,-100.00,West,274,4.0,10.0,71,0.00,,,0.28,68.000000,,2013-05-18 16:32:00,
2013-05-18 08:42:00,33.0,25.0,-100.00,West,274,4.0,10.0,71,0.00,,,0.28,68.000000,,2013-05-18 16:42:00,
2013-05-18 08:52:00,33.0,25.0,-100.00,West,274,4.0,10.0,71,0.00,,,0.28,68.000000,,2013-05-18 16:52:00,
2013-05-18 09:22:00,34.0,26.0,-100.00,WSW,258,4.0,11.0,72,0.00,,,0.28,127.000000,,2013-05-18 17:22:00,
2013-05-18 09:32:00,34.0,26.0,-100.00,WSW,258,4.0,11.0,72,0.00,,,0.28,127.000000,,2013-05-18 17:32:00,
2013-05-18 09:42:00,34.0,26.0,-100.00,WSW,258,4.0,11.0,72,0.00,,,0.28,127.000000,,2013-05-18 17:42:00,
2013-05-18 09:51:00,34.0,26.0,-100.00,WSW,258,4.0,11.0,72,0.00,,,0.28,127.000000,,2013-05-18 17:51:00,
2013-05-18 10:21:00,36.0,24.0,-100.00,West,260,3.0,11.0,61,0.01,,,0.26,216.000000,,2013-05-18 18:21:00,
2013-05-18 10:32:00,36.0,24.0,-100.00,West,260,3.0,11.0,61,0.01,,,0.26,216.000000,,2013-05-18 18:32:00,
2013-05-18 10:42:00,36.0,24.0,-100.00,West,260,3.0,11.0,61,0.01,,,0.26,216.000000,,2013-05-18 18:42:00,
2013-05-18 10:51:00,36.0,24.0,-100.00,West,260,3.0,11.0,61,0.01,,,0.26,216.000000,,2013-05-18 18:51:00,
2013-05-18 11:22:00,37.0,24.0,-100.00,West,274,4.0,9.0,60,0.00,,,0.25,279.000000,,2013-05-18 19:22:00,
2013-05-18 11:32:00,37.0,24.0,-100.00,West,274,4.0,9.0,60,0.00,,,0.25,279.000000,,2013-05-18 19:32:00,
2013-05-18 11:42:00,37.0,24.0,-100.00,West,274,4.0,9.0,60,0.00,,,0.25,279.000000,,2013-05-18 19:42:00,
2013-05-18 11:52:00,37.0,24.0,-100.00,West,274,4.0,9.0,60,0.00,,,0.25,279.000000,,2013-05-18 19:52:00,
2013-05-18 12:22:00,37.0,22.0,-100.00,West,264,4.0,9.0,55,0.00,,,0.21,314.000000,,2013-05-18 20:22:00,
2013-05-18 12:32:00,37.0,22.0,-100.00,West,264,4.0,9.0,55,0.00,,,0.21,314.000000,,2013-05-18 20:32:00,
2013-05-18 12:42:00,37.0,22.0,-100.00,West,264,4.0,9.0,55,0.00,,,0.21,314.000000,,2013-05-18 20:42:00,
2013-05-18 12:52:00,37.0,22.0,-100.00,West,264,4.0,9.0,55,0.00,,,0.21,314.000000,,2013-05-18 20:52:00,
2013-05-18 13:21:00,39.0,21.0,-100.00,WSW,258,3.0,9.0,49,0.00,,,0.19,352.000000,,2013-05-18 21:21:00,
2013-05-18 13:32:00,39.0,21.0,-100.00,WSW,258,3.0,9.0,49,0.00,,,0.19,352.000000,,2013-05-18 21:32:00,
2013-05-18 13:43:00,39.0,21.0,-100.00,WSW,258,3.0,9.0,49,0.00,,,0.19,352.000000,,2013-05-18 21:43:00,
2013-05-18 13:53:00,39.0,21.0,-100.00,WSW,258,3.0,9.0,49,0.00,,,0.19,352.000000,,2013-05-18 21:53:00,
2013-05-18 14:23:00,39.0,20.0,-100.00,West,272,3.0,10.0,47,0.00,,,0.17,369.000000,,2013-05-18 22:23:00,
2013-05-18 14:33:00,39.0,20.0,-100.00,West,272,3.0,10.0,47,0.00,,,0.17,369.000000,,2013-05-18 22:33:00,
2013-05-18 14:42:00,39.0,20.0,-100.00,West,272,3.0,10.0,47,0.00,,,0.17,369.000000,,2013-05-18 22:42:00,
2013-05-18 14:52:00,39.0,20.0,-100.00,West,272,3.0,10.0,47,0.00,,,0.17,369.000000,,2013-05-18 22:52:00,
2013-05-18 15:22:00,40.0,22.0,-100.00,WSW,238,3.0,14.0,49,0.00,,,0.13,344.000000,,2013-05-18 23:22:00,
2013-05-18 15:32:00,40.0,22.0,-100.00,WSW,238,3.0,14.0,49,0.00,,,0.13,344.000000,,2013-05-18 23:32:00,
2013-05-18 15:41:00,40.0,22.0,-100.00,WSW,238,3.0,14.0,49,0.00,,,0.13,344.000000,,2013-05-18 23:41:00,
2013-05-18 15:52:00,40.0,22.0,-100.00,WSW,238,3.0,14.0,49,0.00,,,0.13,344.000000,,2013-05-18 23:52:00,
2013-05-18 16:21:00,38.0,19.0,-100.00,NW,307,2.0,9.0,46,0.00,,,0.10,311.000000,,2013-05-19 00:21:00,
2013-05-18 16:31:00,38.0,19.0,-100.00,NW,307,2.0,9.0,46,0.00,,,0.10,311.000000,,2013-05-19 00:31:00,
2013-05-18 16:41:00,38.0,19.0,-100.00,NW,307,2.0,9.0,46,0.00,,,0.10,311.000000,,2013-05-19 00:41:00,
2013-05-18 16:51:00,38.0,19.0,-100.00,NW,307,2.0,9.0,46,0.00,,,0.10,311.000000,,2013-05-19 00:51:00,
2013-05-18 17:21:00,38.0,19.0,-100.00,NE,36,4.0,10.0,45,0.00,,,0.07,271.000000,,2013-05-19 01:21:00,
2013-05-18 17:32:00,38.0,19.0,-100.00,NE,36,4.0,10.0,45,0.00,,,0.07,271.000000,,2013-05-19 01:32:00,
2013-05-18 17:41:00,38.0,19.0,-100.00,NE,36,4.0,10.0,45,0.00,,,0.07,271.000000,,2013-05-19 01:41:00,
2013-05-18 17:52:00,38.0,19.0,-100.00,NE,36,4.0,10.0,45,0.00,,,0.07,271.000000,,2013-05-19 01:52:00,
2013-05-18 18:21:00,36.0,19.0,-100.00,NNE,28,4.0,9.0,49,0.00,,,0.05,257.000000,,2013-05-19 02:21:00,
2013-05-18 18:32:00,36.0,19.0,-100.00,NNE,28,4.0,9.0,49,0.00,,,0.05,257.000000,,2013-05-19 02:32:00,
2013-05-18 18:42:00,36.0,19.0,-100.00,NNE,28,4.0,9.0,49,0.00,,,0.05,257.000000,,2013-05-19 02:42:00,
2013-05-18 18:52:00,36.0,19.0,-100.00,NNE,28,4.0,9.0,49,0.00,,,0.05,257.000000,,2013-05-19 02:52:00,
2013-05-18 19:21:00,36.0,19.0,-100.00,North,4,4.0,10.0,50,0.00,,,0.05,195.000000,,2013-05-19 03:21:00,
2013-05-18 19:33:00,36.0,19.0,-100.00,North,4,4.0,10.0,50,0.00,,,0.05,195.000000,,2013-05-19 03:33:00,
2013-05-18 19:42:00,36.0,19.0,-100.00,North,4,4.0,10.0,50,0.00,,,0.05,195.000000,,2013-05-19 03:42:00,
2013-05-18 19:53:00,36.0,19.0,-100.00,North,4,4.0,10.0,50,0.00,,,0.05,195.000000,,2013-05-19 03:53:00,
2013-05-18 20:23:00,37.0,21.0,-100.00,NNE,21,2.0,8.0,51,0.00,,,0.04,132.000000,,2013-05-19 04:23:00,
2013-05-18 20:33:00,37.0,21.0,-100.00,NNE,21,2.0,8.0,51,0.00,,,0.04,132.000000,,2013-05-19 04:33:00,
2013-05-18 20:42:00,37.0,21.0,-100.00,NNE,21,2.0,8.0,51,0.00,,,0.04,132.000000,,2013-05-19 04:42:00,
2013-05-18 20:52:00,37.0,21.0,-100.00,NNE,21,2.0,8.0,51,0.00,,,0.04,132.000000,,2013-05-19 04:52:00,
2013-05-18 21:22:00,36.0,18.0,-100.00,ENE,58,2.0,6.0,48,0.00,,,0.03,84.000000,,2013-05-19 05:22:00,
2013-05-18 21:32:00,36.0,18.0,-100.00,ENE,58,2.0,6.0,48,0.00,,,0.03,84.000000,,2013-05-19 05:32:00,
2013-05-18 21:42:00,36.0,18.0,-100.00,ENE,58,2.0,6.0,48,0.00,,,0.03,84.000000,,2013-05-19 05:42:00,
2013-05-18 21:51:00,36.0,18.0,-100.00,ENE,58,2.0,6.0,48,0.00,,,0.03,84.000000,,2013-05-19 05:51:00,
2013-05-18 22:21:00,34.0,20.0,-100.00,NNE,21,1.0,7.0,56,0.00,,,0.01,33.000000,,2013-05-19 06:21:00,
2013-05-18 22:32:00,34.0,20.0,-100.00,NNE,21,1.0,7.0,56,0.00,,,0.01,33.000000,,2013-05-19 06:32:00,
2013-05-18 22:42:00,34.0,20.0,-100.00,NNE,21,1.0,7.0,56,0.00,,,0.01,33.000000,,2013-05-19 06:42:00,
2013-05-18 22:51:00,34.0,20.0,-100.00,NNE,21,1.0,7.0,56,0.00,,,0.01,33.000000,,2013-05-19 06:51:00,
2013-05-18 23:21:00,31.0,18.0,-100.00,NNE,31,0.0,5.0,59,0.00,,,0.01,6.000000,,2013-05-19 07:21:00,
2013-05-18 23:32:00,31.0,18.0,-100.00,NNE,31,0.0,5.0,59,0.00,,,0.01,6.000000,,2013-05-19 07:32:00,
2013-05-18 23:41:00,31.0,18.0,-100.00,NNE,31,0.0,5.0,59,0.00,,,0.01,6.000000,,2013-05-19 07:41:00,
2013-05-18 23:52:00,31.0,18.0,-100.00,NNE,31,0.0,5.0,59,0.00,,,0.01,6.000000,,2013-05-19 07:52:00,